sensor_id;sensor_type;location;lat;lon;timestamp;temperature;humidity
43607;DHT22;29197;44.788;10.366;2022-10-16T00:01:12;19.90;99.90
43607;DHT22;29197;44.788;10.366;2022-10-16T00:04:02;19.90;99.90
43607;DHT22;29197;44.788;10.366;2022-10-16T00:06:52;19.90;99.90
43607;DHT22;29197;44.788;10.366;2022-10-16T00:09:41;19.80;99.90
43607;DHT22;29197;44.788;10.366;2022-10-16T00:12:29;19.80;99.90
43607;DHT22;29197;44.788;10.366;2022-10-16T00:15:19;19.80;99.90
43607;DHT22;29197;44.788;10.366;2022-10-16T00:18:10;19.90;99.90
43607;DHT22;29197;44.788;10.366;2022-10-16T00:21:02;20.00;99.90
43607;DHT22;29197;44.788;10.366;2022-10-16T00:23:53;20.00;99.90
43607;DHT22;29197;44.788;10.366;2022-10-16T00:26:42;20.20;99.90
43607;DHT22;29197;44.788;10.366;2022-10-16T00:29:32;20.10;99.90
43607;DHT22;29197;44.788;10.366;2022-10-16T00:32:22;20.10;99.90
43607;DHT22;29197;44.788;10.366;2022-10-16T00:35:13;20.00;99.90
43607;DHT22;29197;44.788;10.366;2022-10-16T00:38:02;19.80;99.90
43607;DHT22;29197;44.788;10.366;2022-10-16T00:40:51;19.70;99.90
43607;DHT22;29197;44.788;10.366;2022-10-16T00:43:43;19.70;99.90
43607;DHT22;29197;44.788;10.366;2022-10-16T00:46:37;19.60;99.90
43607;DHT22;29197;44.788;10.366;2022-10-16T00:49:27;19.60;99.90
43607;DHT22;29197;44.788;10.366;2022-10-16T00:52:18;19.60;99.90
43607;DHT22;29197;44.788;10.366;2022-10-16T00:55:09;19.50;99.90
43607;DHT22;29197;44.788;10.366;2022-10-16T00:57:58;19.50;99.90
43607;DHT22;29197;44.788;10.366;2022-10-16T01:00:48;19.60;99.90
43607;DHT22;29197;44.788;10.366;2022-10-16T01:03:38;19.60;99.90
43607;DHT22;29197;44.788;10.366;2022-10-16T01:06:35;19.50;99.90
43607;DHT22;29197;44.788;10.366;2022-10-16T01:09:31;19.60;99.90
43607;DHT22;29197;44.788;10.366;2022-10-16T01:12:27;19.70;99.90
43607;DHT22;29197;44.788;10.366;2022-10-16T01:15:26;19.70;99.90
43607;DHT22;29197;44.788;10.366;2022-10-16T01:18:20;19.60;99.90
43607;DHT22;29197;44.788;10.366;2022-10-16T01:21:15;19.60;99.90
43607;DHT22;29197;44.788;10.366;2022-10-16T01:24:11;19.60;99.90
43607;DHT22;29197;44.788;10.366;2022-10-16T01:27:15;19.70;99.90
43607;DHT22;29197;44.788;10.366;2022-10-16T01:30:10;19.80;99.90
43607;DHT22;29197;44.788;10.366;2022-10-16T01:33:05;19.80;99.90
43607;DHT22;29197;44.788;10.366;2022-10-16T01:36:01;19.90;99.90
43607;DHT22;29197;44.788;10.366;2022-10-16T01:38:53;19.90;99.90
43607;DHT22;29197;44.788;10.366;2022-10-16T01:41:46;20.00;99.90
43607;DHT22;29197;44.788;10.366;2022-10-16T01:44:39;19.90;99.90
43607;DHT22;29197;44.788;10.366;2022-10-16T01:47:30;19.90;99.90
43607;DHT22;29197;44.788;10.366;2022-10-16T01:50:21;19.90;99.90
43607;DHT22;29197;44.788;10.366;2022-10-16T01:53:12;19.90;99.90
43607;DHT22;29197;44.788;10.366;2022-10-16T01:56:05;19.80;99.90
43607;DHT22;29197;44.788;10.366;2022-10-16T01:58:57;19.90;99.90
43607;DHT22;29197;44.788;10.366;2022-10-16T02:01:52;19.90;99.90
43607;DHT22;29197;44.788;10.366;2022-10-16T02:04:45;19.90;99.90
43607;DHT22;29197;44.788;10.366;2022-10-16T02:07:35;20.00;99.90
43607;DHT22;29197;44.788;10.366;2022-10-16T02:10:24;20.00;99.90
43607;DHT22;29197;44.788;10.366;2022-10-16T02:13:15;20.00;99.90
43607;DHT22;29197;44.788;10.366;2022-10-16T02:16:07;20.00;99.90
43607;DHT22;29197;44.788;10.366;2022-10-16T02:18:57;19.90;99.90
43607;DHT22;29197;44.788;10.366;2022-10-16T02:21:50;19.90;99.90
43607;DHT22;29197;44.788;10.366;2022-10-16T02:24:45;19.90;99.90
43607;DHT22;29197;44.788;10.366;2022-10-16T02:27:41;19.90;99.90
43607;DHT22;29197;44.788;10.366;2022-10-16T02:30:36;19.90;99.90
43607;DHT22;29197;44.788;10.366;2022-10-16T02:33:28;19.90;99.90
43607;DHT22;29197;44.788;10.366;2022-10-16T02:36:18;19.90;99.90
43607;DHT22;29197;44.788;10.366;2022-10-16T02:39:09;19.90;99.90
43607;DHT22;29197;44.788;10.366;2022-10-16T02:41:59;19.90;99.90
43607;DHT22;29197;44.788;10.366;2022-10-16T02:44:49;19.80;99.90
43607;DHT22;29197;44.788;10.366;2022-10-16T02:47:38;19.80;99.90
43607;DHT22;29197;44.788;10.366;2022-10-16T02:50:27;19.80;99.90
43607;DHT22;29197;44.788;10.366;2022-10-16T02:53:17;19.80;99.90
43607;DHT22;29197;44.788;10.366;2022-10-16T02:56:07;19.80;99.90
43607;DHT22;29197;44.788;10.366;2022-10-16T02:58:57;19.80;99.90
43607;DHT22;29197;44.788;10.366;2022-10-16T03:01:45;19.80;99.90
43607;DHT22;29197;44.788;10.366;2022-10-16T03:04:35;19.90;99.90
43607;DHT22;29197;44.788;10.366;2022-10-16T03:07:24;19.70;99.90
43607;DHT22;29197;44.788;10.366;2022-10-16T03:10:15;19.70;99.90
43607;DHT22;29197;44.788;10.366;2022-10-16T03:13:05;19.70;99.90
43607;DHT22;29197;44.788;10.366;2022-10-16T03:15:54;19.70;99.90
43607;DHT22;29197;44.788;10.366;2022-10-16T03:18:43;19.70;99.90
43607;DHT22;29197;44.788;10.366;2022-10-16T03:21:32;19.70;99.90
43607;DHT22;29197;44.788;10.366;2022-10-16T03:24:21;19.60;99.90
43607;DHT22;29197;44.788;10.366;2022-10-16T03:27:12;19.60;99.90
43607;DHT22;29197;44.788;10.366;2022-10-16T03:30:00;19.50;99.90
43607;DHT22;29197;44.788;10.366;2022-10-16T03:32:49;19.50;99.90
43607;DHT22;29197;44.788;10.366;2022-10-16T03:35:41;19.40;99.90
43607;DHT22;29197;44.788;10.366;2022-10-16T03:38:31;19.30;99.90
43607;DHT22;29197;44.788;10.366;2022-10-16T03:41:20;19.30;99.90
43607;DHT22;29197;44.788;10.366;2022-10-16T03:44:10;19.30;99.90
43607;DHT22;29197;44.788;10.366;2022-10-16T03:47:00;19.30;99.90
43607;DHT22;29197;44.788;10.366;2022-10-16T03:49:49;19.10;99.90
43607;DHT22;29197;44.788;10.366;2022-10-16T03:52:38;19.10;99.90
43607;DHT22;29197;44.788;10.366;2022-10-16T03:55:26;19.10;99.90
43607;DHT22;29197;44.788;10.366;2022-10-16T03:58:16;19.10;99.90
43607;DHT22;29197;44.788;10.366;2022-10-16T04:01:07;19.20;99.90
43607;DHT22;29197;44.788;10.366;2022-10-16T04:03:56;19.20;99.90
43607;DHT22;29197;44.788;10.366;2022-10-16T04:06:46;19.30;99.90
43607;DHT22;29197;44.788;10.366;2022-10-16T04:09:35;19.30;99.90
43607;DHT22;29197;44.788;10.366;2022-10-16T04:12:24;19.20;99.90
43607;DHT22;29197;44.788;10.366;2022-10-16T04:15:14;19.20;99.90
43607;DHT22;29197;44.788;10.366;2022-10-16T04:18:05;19.10;99.90
43607;DHT22;29197;44.788;10.366;2022-10-16T04:20:55;19.10;99.90
43607;DHT22;29197;44.788;10.366;2022-10-16T04:23:45;19.20;99.90
43607;DHT22;29197;44.788;10.366;2022-10-16T04:26:34;19.20;99.90
43607;DHT22;29197;44.788;10.366;2022-10-16T04:29:23;19.20;99.90
43607;DHT22;29197;44.788;10.366;2022-10-16T04:32:12;19.20;99.90
43607;DHT22;29197;44.788;10.366;2022-10-16T04:35:03;19.20;99.90
43607;DHT22;29197;44.788;10.366;2022-10-16T04:37:52;18.80;99.90
43607;DHT22;29197;44.788;10.366;2022-10-16T04:40:41;19.00;99.90
43607;DHT22;29197;44.788;10.366;2022-10-16T04:43:31;19.00;99.90
43607;DHT22;29197;44.788;10.366;2022-10-16T04:46:20;19.00;99.90
43607;DHT22;29197;44.788;10.366;2022-10-16T04:49:09;19.00;99.90
43607;DHT22;29197;44.788;10.366;2022-10-16T04:52:00;19.00;99.90
43607;DHT22;29197;44.788;10.366;2022-10-16T04:54:49;18.90;99.90
43607;DHT22;29197;44.788;10.366;2022-10-16T04:57:38;18.90;99.90
43607;DHT22;29197;44.788;10.366;2022-10-16T05:06:07;18.40;99.90
43607;DHT22;29197;44.788;10.366;2022-10-16T05:08:58;18.40;99.90
43607;DHT22;29197;44.788;10.366;2022-10-16T05:11:47;18.40;99.90
43607;DHT22;29197;44.788;10.366;2022-10-16T05:14:36;18.40;99.90
43607;DHT22;29197;44.788;10.366;2022-10-16T05:17:25;18.40;99.90
43607;DHT22;29197;44.788;10.366;2022-10-16T05:20:14;18.40;99.90
43607;DHT22;29197;44.788;10.366;2022-10-16T05:23:03;18.40;99.90
43607;DHT22;29197;44.788;10.366;2022-10-16T05:25:54;18.30;99.90
43607;DHT22;29197;44.788;10.366;2022-10-16T05:28:46;18.30;99.90
43607;DHT22;29197;44.788;10.366;2022-10-16T05:31:36;18.20;99.90
43607;DHT22;29197;44.788;10.366;2022-10-16T05:34:25;18.20;99.90
43607;DHT22;29197;44.788;10.366;2022-10-16T05:37:14;18.20;99.90
43607;DHT22;29197;44.788;10.366;2022-10-16T05:40:04;18.20;99.90
43607;DHT22;29197;44.788;10.366;2022-10-16T05:42:56;18.20;99.90
43607;DHT22;29197;44.788;10.366;2022-10-16T05:45:53;18.30;99.90
43607;DHT22;29197;44.788;10.366;2022-10-16T05:48:43;18.30;99.90
43607;DHT22;29197;44.788;10.366;2022-10-16T05:51:32;18.40;99.90
43607;DHT22;29197;44.788;10.366;2022-10-16T05:54:22;18.40;99.90
43607;DHT22;29197;44.788;10.366;2022-10-16T05:57:11;18.30;99.90
43607;DHT22;29197;44.788;10.366;2022-10-16T06:00:02;18.30;99.90
43607;DHT22;29197;44.788;10.366;2022-10-16T06:02:52;18.40;99.90
43607;DHT22;29197;44.788;10.366;2022-10-16T06:05:42;18.40;99.90
43607;DHT22;29197;44.788;10.366;2022-10-16T06:08:31;18.40;99.90
43607;DHT22;29197;44.788;10.366;2022-10-16T06:11:22;18.40;99.90
43607;DHT22;29197;44.788;10.366;2022-10-16T06:14:11;18.50;99.90
43607;DHT22;29197;44.788;10.366;2022-10-16T06:17:02;18.50;99.90
43607;DHT22;29197;44.788;10.366;2022-10-16T06:19:51;18.40;99.90
43607;DHT22;29197;44.788;10.366;2022-10-16T06:22:40;18.40;99.90
43607;DHT22;29197;44.788;10.366;2022-10-16T06:25:29;18.20;99.90
43607;DHT22;29197;44.788;10.366;2022-10-16T06:28:18;18.00;99.90
43607;DHT22;29197;44.788;10.366;2022-10-16T06:31:09;18.00;99.90
43607;DHT22;29197;44.788;10.366;2022-10-16T06:34:00;18.00;99.90
43607;DHT22;29197;44.788;10.366;2022-10-16T06:36:49;18.10;99.90
43607;DHT22;29197;44.788;10.366;2022-10-16T06:39:38;18.00;99.90
43607;DHT22;29197;44.788;10.366;2022-10-16T06:42:27;17.90;99.90
43607;DHT22;29197;44.788;10.366;2022-10-16T06:45:16;18.00;99.90
43607;DHT22;29197;44.788;10.366;2022-10-16T06:48:05;18.20;99.90
43607;DHT22;29197;44.788;10.366;2022-10-16T06:51:00;18.20;99.90
43607;DHT22;29197;44.788;10.366;2022-10-16T06:53:53;18.40;99.90
43607;DHT22;29197;44.788;10.366;2022-10-16T06:56:51;18.50;99.90
43607;DHT22;29197;44.788;10.366;2022-10-16T06:59:42;18.40;99.90
43607;DHT22;29197;44.788;10.366;2022-10-16T07:02:33;18.50;99.90
43607;DHT22;29197;44.788;10.366;2022-10-16T07:05:22;18.40;99.90
43607;DHT22;29197;44.788;10.366;2022-10-16T07:08:14;18.40;99.90
43607;DHT22;29197;44.788;10.366;2022-10-16T07:11:05;18.30;99.90
43607;DHT22;29197;44.788;10.366;2022-10-16T07:13:54;18.40;99.90
43607;DHT22;29197;44.788;10.366;2022-10-16T07:16:43;18.40;99.90
43607;DHT22;29197;44.788;10.366;2022-10-16T07:19:33;18.50;99.90
43607;DHT22;29197;44.788;10.366;2022-10-16T07:22:22;18.40;99.90
43607;DHT22;29197;44.788;10.366;2022-10-16T07:25:13;18.40;99.90
43607;DHT22;29197;44.788;10.366;2022-10-16T07:28:03;18.50;99.90
43607;DHT22;29197;44.788;10.366;2022-10-16T07:30:52;18.60;99.90
43607;DHT22;29197;44.788;10.366;2022-10-16T07:33:42;18.60;99.90
43607;DHT22;29197;44.788;10.366;2022-10-16T07:36:32;18.70;99.90
43607;DHT22;29197;44.788;10.366;2022-10-16T07:39:21;18.80;99.90
43607;DHT22;29197;44.788;10.366;2022-10-16T07:42:12;18.90;99.90
43607;DHT22;29197;44.788;10.366;2022-10-16T07:45:01;19.00;99.90
43607;DHT22;29197;44.788;10.366;2022-10-16T07:47:51;19.10;99.90
43607;DHT22;29197;44.788;10.366;2022-10-16T07:50:40;19.00;99.90
43607;DHT22;29197;44.788;10.366;2022-10-16T07:53:30;18.90;99.90
43607;DHT22;29197;44.788;10.366;2022-10-16T07:56:20;19.00;99.90
43607;DHT22;29197;44.788;10.366;2022-10-16T07:59:11;19.00;99.90
43607;DHT22;29197;44.788;10.366;2022-10-16T08:02:00;19.00;99.90
43607;DHT22;29197;44.788;10.366;2022-10-16T08:04:50;19.10;99.90
43607;DHT22;29197;44.788;10.366;2022-10-16T08:07:39;19.20;99.90
43607;DHT22;29197;44.788;10.366;2022-10-16T08:10:29;19.30;99.90
43607;DHT22;29197;44.788;10.366;2022-10-16T08:13:19;19.40;99.90
43607;DHT22;29197;44.788;10.366;2022-10-16T08:16:11;19.30;99.90
43607;DHT22;29197;44.788;10.366;2022-10-16T08:19:00;19.40;99.90
43607;DHT22;29197;44.788;10.366;2022-10-16T08:21:50;19.40;99.90
43607;DHT22;29197;44.788;10.366;2022-10-16T08:24:39;19.40;99.90
43607;DHT22;29197;44.788;10.366;2022-10-16T08:27:31;19.60;99.90
43607;DHT22;29197;44.788;10.366;2022-10-16T08:30:21;19.80;99.90
43607;DHT22;29197;44.788;10.366;2022-10-16T08:33:13;19.80;99.90
43607;DHT22;29197;44.788;10.366;2022-10-16T08:36:03;19.70;99.90
43607;DHT22;29197;44.788;10.366;2022-10-16T08:38:52;19.80;99.90
43607;DHT22;29197;44.788;10.366;2022-10-16T18:57:09;20.80;99.90
43607;DHT22;29197;44.788;10.366;2022-10-16T18:59:58;20.70;99.90
43607;DHT22;29197;44.788;10.366;2022-10-16T19:02:47;20.60;99.90
43607;DHT22;29197;44.788;10.366;2022-10-16T19:05:36;20.60;99.90
43607;DHT22;29197;44.788;10.366;2022-10-16T19:08:27;20.60;99.90
43607;DHT22;29197;44.788;10.366;2022-10-16T19:11:19;20.50;99.90
43607;DHT22;29197;44.788;10.366;2022-10-16T19:14:09;20.50;99.90
43607;DHT22;29197;44.788;10.366;2022-10-16T19:16:58;20.50;99.90
43607;DHT22;29197;44.788;10.366;2022-10-16T19:19:47;20.40;99.90
43607;DHT22;29197;44.788;10.366;2022-10-16T19:22:37;20.30;99.90
43607;DHT22;29197;44.788;10.366;2022-10-16T19:25:42;20.40;99.90
43607;DHT22;29197;44.788;10.366;2022-10-16T19:28:30;20.40;99.90
43607;DHT22;29197;44.788;10.366;2022-10-16T19:31:22;20.40;99.90
43607;DHT22;29197;44.788;10.366;2022-10-16T19:34:12;20.30;99.90
43607;DHT22;29197;44.788;10.366;2022-10-16T19:37:02;20.30;99.90
43607;DHT22;29197;44.788;10.366;2022-10-16T19:48:22;20.10;99.90
43607;DHT22;29197;44.788;10.366;2022-10-16T19:51:13;20.10;99.90
43607;DHT22;29197;44.788;10.366;2022-10-16T19:54:04;20.10;99.90
43607;DHT22;29197;44.788;10.366;2022-10-16T19:56:54;19.90;99.90
43607;DHT22;29197;44.788;10.366;2022-10-16T19:59:50;19.80;99.90
43607;DHT22;29197;44.788;10.366;2022-10-16T20:02:40;19.70;99.90
43607;DHT22;29197;44.788;10.366;2022-10-16T20:05:29;19.70;99.90
43607;DHT22;29197;44.788;10.366;2022-10-16T20:08:18;19.60;99.90
43607;DHT22;29197;44.788;10.366;2022-10-16T20:11:10;19.50;99.90
43607;DHT22;29197;44.788;10.366;2022-10-16T20:14:01;19.60;99.90
43607;DHT22;29197;44.788;10.366;2022-10-16T20:16:51;19.50;99.90
43607;DHT22;29197;44.788;10.366;2022-10-16T20:19:41;19.50;99.90
43607;DHT22;29197;44.788;10.366;2022-10-16T20:22:30;19.40;99.90
43607;DHT22;29197;44.788;10.366;2022-10-16T20:25:19;19.30;99.90
43607;DHT22;29197;44.788;10.366;2022-10-16T20:28:10;19.10;99.90
43607;DHT22;29197;44.788;10.366;2022-10-16T20:31:05;19.00;99.90
43607;DHT22;29197;44.788;10.366;2022-10-16T20:33:57;18.90;99.90
43607;DHT22;29197;44.788;10.366;2022-10-16T20:36:47;19.00;99.90
43607;DHT22;29197;44.788;10.366;2022-10-16T20:39:37;19.20;99.90
43607;DHT22;29197;44.788;10.366;2022-10-16T20:42:26;19.20;99.90
43607;DHT22;29197;44.788;10.366;2022-10-16T20:45:16;19.30;99.90
43607;DHT22;29197;44.788;10.366;2022-10-16T20:48:06;19.40;99.90
43607;DHT22;29197;44.788;10.366;2022-10-16T20:50:56;19.20;99.90
43607;DHT22;29197;44.788;10.366;2022-10-16T20:53:50;19.20;99.90
43607;DHT22;29197;44.788;10.366;2022-10-16T20:56:41;19.30;99.90
43607;DHT22;29197;44.788;10.366;2022-10-16T20:59:30;19.30;99.90
43607;DHT22;29197;44.788;10.366;2022-10-16T21:02:19;19.30;99.90
43607;DHT22;29197;44.788;10.366;2022-10-16T21:05:10;19.50;99.90
43607;DHT22;29197;44.788;10.366;2022-10-16T21:08:01;19.50;99.90
43607;DHT22;29197;44.788;10.366;2022-10-16T21:10:50;19.40;99.90
43607;DHT22;29197;44.788;10.366;2022-10-16T21:13:39;19.40;99.90
43607;DHT22;29197;44.788;10.366;2022-10-16T21:16:29;19.40;99.90
43607;DHT22;29197;44.788;10.366;2022-10-16T21:19:18;19.50;99.90
43607;DHT22;29197;44.788;10.366;2022-10-16T21:22:07;19.70;99.90
43607;DHT22;29197;44.788;10.366;2022-10-16T21:24:58;19.70;99.90
43607;DHT22;29197;44.788;10.366;2022-10-16T21:27:46;19.70;99.90
43607;DHT22;29197;44.788;10.366;2022-10-16T21:30:36;19.80;99.90
43607;DHT22;29197;44.788;10.366;2022-10-16T21:33:25;19.80;99.90
43607;DHT22;29197;44.788;10.366;2022-10-16T21:36:16;19.50;99.90
43607;DHT22;29197;44.788;10.366;2022-10-16T21:39:06;19.40;99.90
43607;DHT22;29197;44.788;10.366;2022-10-16T21:41:57;19.30;99.90
43607;DHT22;29197;44.788;10.366;2022-10-16T21:44:47;19.20;99.90
43607;DHT22;29197;44.788;10.366;2022-10-16T21:47:36;19.10;99.90
43607;DHT22;29197;44.788;10.366;2022-10-16T21:50:25;19.00;99.90
43607;DHT22;29197;44.788;10.366;2022-10-16T21:53:14;18.90;99.90
43607;DHT22;29197;44.788;10.366;2022-10-16T21:56:03;18.90;99.90
43607;DHT22;29197;44.788;10.366;2022-10-16T21:58:54;19.00;99.90
43607;DHT22;29197;44.788;10.366;2022-10-16T22:01:42;18.80;99.90
43607;DHT22;29197;44.788;10.366;2022-10-16T22:04:32;17.80;99.90
43607;DHT22;29197;44.788;10.366;2022-10-16T22:07:21;18.60;99.90
43607;DHT22;29197;44.788;10.366;2022-10-16T22:10:10;18.70;99.90
43607;DHT22;29197;44.788;10.366;2022-10-16T22:12:59;18.60;99.90
43607;DHT22;29197;44.788;10.366;2022-10-16T22:15:50;18.70;99.90
43607;DHT22;29197;44.788;10.366;2022-10-16T22:18:40;18.70;99.90
43607;DHT22;29197;44.788;10.366;2022-10-16T22:21:29;18.70;99.90
43607;DHT22;29197;44.788;10.366;2022-10-16T22:24:18;18.80;99.90
43607;DHT22;29197;44.788;10.366;2022-10-16T22:27:07;18.70;99.90
43607;DHT22;29197;44.788;10.366;2022-10-16T22:29:56;18.50;99.90
43607;DHT22;29197;44.788;10.366;2022-10-16T22:32:47;18.60;99.90
43607;DHT22;29197;44.788;10.366;2022-10-16T22:35:36;18.70;99.90
43607;DHT22;29197;44.788;10.366;2022-10-16T22:38:27;18.70;99.90
43607;DHT22;29197;44.788;10.366;2022-10-16T22:41:16;18.80;99.90
43607;DHT22;29197;44.788;10.366;2022-10-16T22:44:05;18.70;99.90
43607;DHT22;29197;44.788;10.366;2022-10-16T22:46:58;18.70;99.90
43607;DHT22;29197;44.788;10.366;2022-10-16T22:49:49;18.80;99.90
43607;DHT22;29197;44.788;10.366;2022-10-16T22:52:39;18.90;99.90
43607;DHT22;29197;44.788;10.366;2022-10-16T22:55:28;18.90;99.90
43607;DHT22;29197;44.788;10.366;2022-10-16T22:58:17;18.80;99.90
43607;DHT22;29197;44.788;10.366;2022-10-16T23:01:11;18.70;99.90
43607;DHT22;29197;44.788;10.366;2022-10-16T23:04:00;18.80;99.90
43607;DHT22;29197;44.788;10.366;2022-10-16T23:06:51;18.90;99.90
43607;DHT22;29197;44.788;10.366;2022-10-16T23:09:41;19.00;99.90
43607;DHT22;29197;44.788;10.366;2022-10-16T23:12:30;19.00;99.90
43607;DHT22;29197;44.788;10.366;2022-10-16T23:15:20;19.10;99.90
43607;DHT22;29197;44.788;10.366;2022-10-16T23:18:09;19.00;99.90
43607;DHT22;29197;44.788;10.366;2022-10-16T23:20:58;19.10;99.90
43607;DHT22;29197;44.788;10.366;2022-10-16T23:23:49;19.10;99.90
43607;DHT22;29197;44.788;10.366;2022-10-16T23:26:40;19.10;99.90
43607;DHT22;29197;44.788;10.366;2022-10-16T23:29:29;19.10;99.90
43607;DHT22;29197;44.788;10.366;2022-10-16T23:32:19;19.10;99.90
43607;DHT22;29197;44.788;10.366;2022-10-16T23:35:08;19.10;99.90
43607;DHT22;29197;44.788;10.366;2022-10-16T23:37:58;19.10;99.90
43607;DHT22;29197;44.788;10.366;2022-10-16T23:40:48;19.10;99.90
43607;DHT22;29197;44.788;10.366;2022-10-16T23:43:38;19.10;99.90
43607;DHT22;29197;44.788;10.366;2022-10-16T23:46:28;18.80;99.90
43607;DHT22;29197;44.788;10.366;2022-10-16T23:49:17;18.60;99.90
43607;DHT22;29197;44.788;10.366;2022-10-16T23:52:06;18.50;99.90
43607;DHT22;29197;44.788;10.366;2022-10-16T23:54:55;18.60;99.90
43607;DHT22;29197;44.788;10.366;2022-10-16T23:57:46;18.70;99.90
